Time;durP1;ratioP1;P1;durP2;ratioP2;P2;SDS_P1;SDS_P2;PMS_P1;PMS_P2;Temp;Humidity;BMP_temperature;BMP_pressure;BME280_temperature;BME280_humidity;BME280_pressure;Samples;Min_cycle;Max_cycle;Signal;HPM_P1;HPM_P2
2022/09/03 00:02:02;;;;;;;2.77;1.37;;;;;;;;;;5012625;28;20171;-76
2022/09/03 00:04:32;;;;;;;2.37;1.60;;;;;;;;;;5007158;28;20207;-76
2022/09/03 00:07:01;;;;;;;2.43;1.37;;;;;;;;;;5014010;28;20191;-76
2022/09/03 00:09:50;;;;;;;1.50;1.40;;;;;;;;;;4996349;28;20179;-76
2022/09/03 00:12:26;;;;;;;1.60;1.50;;;;;;;;;;5007204;28;20241;-76
2022/09/03 00:14:57;;;;;;;1.40;1.30;;;;;;;;;;5012683;28;20657;-76
2022/09/03 00:17:31;;;;;;;4.30;1.63;;;;;;;;;;5012645;28;20264;-76
2022/09/03 00:19:57;;;;;;;2.23;1.43;;;;;;;;;;5012245;28;20179;-76
2022/09/03 00:22:32;;;;;;;2.60;1.50;;;;;;;;;;5012471;28;20559;-76
2022/09/03 00:25:01;;;;;;;1.43;1.20;;;;;;;;;;5012210;28;20182;-76
2022/09/03 00:27:28;;;;;;;1.67;1.30;;;;;;;;;;5012110;28;20199;-76
2022/09/03 00:29:57;;;;;;;3.27;1.60;;;;;;;;;;5012350;28;20517;-76
2022/09/03 00:32:26;;;;;;;3.27;1.50;;;;;;;;;;5012034;28;20185;-76
2022/09/03 00:34:56;;;;;;;1.67;1.50;;;;;;;;;;4995930;28;20179;-76
2022/09/03 00:37:22;;;;;;;2.50;1.50;;;;;;;;;;5012307;28;20170;-76
2022/09/03 00:39:48;;;;;;;2.93;1.50;;;;;;;;;;4995638;28;20186;-76
2022/09/03 00:42:24;;;;;;;1.40;1.30;;;;;;;;;;5012340;28;20187;-76
2022/09/03 00:45:03;;;;;;;1.10;1.00;;;;;;;;;;5011381;28;20222;-76
2022/09/03 00:47:32;;;;;;;1.30;1.20;;;;;;;;;;5011716;28;20206;-76
2022/09/03 00:50:14;;;;;;;2.43;1.30;;;;;;;;;;5011686;28;20229;-76
2022/09/03 00:52:46;;;;;;;3.00;1.40;;;;;;;;;;5011828;28;20195;-76
2022/09/03 00:55:12;;;;;;;1.57;1.23;;;;;;;;;;5012067;28;20182;-76
2022/09/03 00:57:44;;;;;;;1.37;1.20;;;;;;;;;;5011792;28;20224;-76
2022/09/03 01:00:13;;;;;;;1.93;1.33;;;;;;;;;;5011919;28;20183;-76
2022/09/03 01:02:48;;;;;;;2.03;1.37;;;;;;;;;;5012967;28;20198;-76
2022/09/03 01:05:21;;;;;;;1.60;1.37;;;;;;;;;;5011595;28;20190;-76
2022/09/03 01:08:07;;;;;;;1.23;1.13;;;;;;;;;;5012895;28;20186;-77
2022/09/03 01:10:38;;;;;;;1.30;1.10;;;;;;;;;;5011440;28;20183;-76
2022/09/03 01:13:04;;;;;;;1.20;1.10;;;;;;;;;;5011738;28;20222;-76
2022/09/03 01:15:39;;;;;;;1.57;1.30;;;;;;;;;;5011799;28;20274;-76
2022/09/03 01:18:05;;;;;;;1.60;1.30;;;;;;;;;;5011853;28;20174;-76
2022/09/03 01:20:44;;;;;;;1.50;1.20;;;;;;;;;;5011355;28;20186;-76
2022/09/03 01:23:24;;;;;;;1.27;1.10;;;;;;;;;;5011598;28;20195;-76
2022/09/03 01:25:56;;;;;;;2.13;1.13;;;;;;;;;;5012702;28;20237;-76
2022/09/03 01:28:41;;;;;;;1.77;1.20;;;;;;;;;;5011483;28;20704;-76
2022/09/03 01:31:10;;;;;;;1.33;1.20;;;;;;;;;;5012908;28;20160;-76
2022/09/03 01:33:52;;;;;;;1.63;1.30;;;;;;;;;;5011650;28;20290;-76
2022/09/03 01:36:28;;;;;;;1.30;1.20;;;;;;;;;;5011436;28;20512;-76
2022/09/03 01:39:05;;;;;;;1.60;1.30;;;;;;;;;;5011272;28;20186;-76
2022/09/03 01:44:40;;;;;;;1.30;1.20;;;;;;;;;;5012811;28;20218;-76
2022/09/03 01:47:22;;;;;;;2.90;1.40;;;;;;;;;;5012439;28;20187;-76
2022/09/03 01:49:56;;;;;;;1.97;1.20;;;;;;;;;;5011408;28;20544;-76
2022/09/03 01:52:34;;;;;;;1.20;1.10;;;;;;;;;;5011494;28;20178;-76
2022/09/03 01:55:00;;;;;;;2.47;1.20;;;;;;;;;;5011328;28;20167;-76
2022/09/03 01:57:26;;;;;;;1.20;1.10;;;;;;;;;;5013156;28;20189;-76
2022/09/03 01:59:58;;;;;;;1.63;1.20;;;;;;;;;;5014737;28;20175;-76
2022/09/03 02:02:25;;;;;;;1.33;1.23;;;;;;;;;;5014841;28;20172;-76
2022/09/03 02:05:00;;;;;;;2.67;1.30;;;;;;;;;;5016099;28;20179;-76
2022/09/03 02:07:32;;;;;;;2.27;1.27;;;;;;;;;;5014542;28;20213;-76
2022/09/03 02:09:59;;;;;;;1.40;1.30;;;;;;;;;;5014609;28;20186;-76
2022/09/03 02:12:25;;;;;;;2.77;1.40;;;;;;;;;;5014787;28;20198;-76
2022/09/03 02:14:52;;;;;;;1.30;1.20;;;;;;;;;;5014655;28;20209;-76
2022/09/03 02:17:18;;;;;;;1.30;1.20;;;;;;;;;;4998428;28;20187;-76
2022/09/03 02:19:44;;;;;;;1.33;1.20;;;;;;;;;;5014531;28;20211;-76
2022/09/03 02:22:10;;;;;;;1.73;1.27;;;;;;;;;;4998655;28;20208;-76
2022/09/03 02:24:36;;;;;;;3.17;1.33;;;;;;;;;;5014729;28;20206;-76
2022/09/03 02:27:02;;;;;;;1.87;1.30;;;;;;;;;;4998364;28;20217;-76
2022/09/03 02:29:28;;;;;;;1.20;1.10;;;;;;;;;;5014191;28;20233;-76
2022/09/03 02:31:54;;;;;;;1.43;1.23;;;;;;;;;;5014477;28;20645;-76
2022/09/03 02:34:20;;;;;;;1.80;1.47;;;;;;;;;;4998117;28;20209;-76
2022/09/03 02:36:46;;;;;;;2.13;1.43;;;;;;;;;;4998342;28;20187;-76
2022/09/03 02:39:13;;;;;;;1.43;1.20;;;;;;;;;;5014069;28;20182;-76
2022/09/03 02:41:39;;;;;;;1.47;1.30;;;;;;;;;;5014416;28;20536;-76
2022/09/03 02:44:05;;;;;;;1.50;1.40;;;;;;;;;;5014263;28;20290;-76
2022/09/03 02:46:38;;;;;;;1.57;1.47;;;;;;;;;;5014407;28;20223;-76
2022/09/03 02:49:04;;;;;;;1.23;1.10;;;;;;;;;;5014114;28;20318;-76
2022/09/03 02:51:38;;;;;;;1.40;1.30;;;;;;;;;;5014228;28;20728;-76
2022/09/03 02:54:04;;;;;;;2.90;1.40;;;;;;;;;;5015071;28;20204;-76
2022/09/03 02:56:30;;;;;;;1.80;1.20;;;;;;;;;;5013940;28;20329;-76
2022/09/03 02:58:56;;;;;;;1.87;1.37;;;;;;;;;;4997485;28;20183;-76
2022/09/03 03:01:22;;;;;;;1.67;1.40;;;;;;;;;;4997476;28;20704;-76
2022/09/03 03:03:49;;;;;;;1.60;1.30;;;;;;;;;;5013605;28;20206;-76
2022/09/03 03:06:15;;;;;;;1.20;1.10;;;;;;;;;;5013958;28;20577;-76
2022/09/03 03:08:43;;;;;;;1.40;1.30;;;;;;;;;;4997269;28;20179;-76
2022/09/03 03:11:09;;;;;;;1.40;1.10;;;;;;;;;;4997739;28;20183;-76
2022/09/03 03:13:35;;;;;;;1.43;1.27;;;;;;;;;;5035408;22;20244;-76
2022/09/03 03:16:02;;;;;;;1.67;1.50;;;;;;;;;;5052504;28;20178;-76
2022/09/03 03:18:28;;;;;;;1.87;1.30;;;;;;;;;;5036225;28;20589;-76
2022/09/03 03:20:54;;;;;;;1.50;1.30;;;;;;;;;;5052532;28;20182;-76
2022/09/03 03:23:20;;;;;;;1.40;1.30;;;;;;;;;;5036106;28;20311;-76
2022/09/03 03:25:46;;;;;;;1.83;1.50;;;;;;;;;;5052691;28;20216;-76
2022/09/03 03:28:12;;;;;;;1.60;1.50;;;;;;;;;;5052556;28;20178;-76
2022/09/03 03:30:41;;;;;;;1.60;1.30;;;;;;;;;;5035788;28;20180;-76
2022/09/03 03:33:07;;;;;;;2.47;1.60;;;;;;;;;;5052363;28;20220;-76
2022/09/03 03:35:33;;;;;;;1.40;1.30;;;;;;;;;;5052682;28;20185;-76
2022/09/03 03:37:59;;;;;;;1.40;1.30;;;;;;;;;;5036091;28;20250;-76
2022/09/03 03:40:26;;;;;;;2.63;1.27;;;;;;;;;;5053548;28;20173;-76
2022/09/03 03:42:52;;;;;;;1.67;1.50;;;;;;;;;;5035607;28;20174;-75
2022/09/03 03:45:18;;;;;;;1.73;1.40;;;;;;;;;;5052170;28;20177;-75
2022/09/03 03:47:44;;;;;;;1.60;1.50;;;;;;;;;;5052147;28;20224;-76
2022/09/03 03:50:10;;;;;;;2.10;1.50;;;;;;;;;;5051823;28;20287;-76
2022/09/03 03:52:37;;;;;;;1.50;1.40;;;;;;;;;;5035748;28;20223;-76
2022/09/03 03:55:03;;;;;;;1.47;1.30;;;;;;;;;;5035638;28;20200;-76
2022/09/03 03:57:30;;;;;;;1.50;1.40;;;;;;;;;;5035443;28;20188;-76
2022/09/03 03:59:56;;;;;;;1.40;1.30;;;;;;;;;;5035352;28;20178;-76
2022/09/03 04:02:22;;;;;;;1.50;1.37;;;;;;;;;;5051959;28;20189;-75
2022/09/03 04:04:48;;;;;;;1.40;1.30;;;;;;;;;;5035171;28;20205;-75
2022/09/03 04:07:14;;;;;;;2.97;1.50;;;;;;;;;;5035332;28;20641;-75
2022/09/03 04:09:40;;;;;;;2.07;1.50;;;;;;;;;;5035022;28;20182;-75
2022/09/03 04:12:07;;;;;;;1.80;1.20;;;;;;;;;;5035105;28;20186;-76
2022/09/03 04:14:34;;;;;;;2.57;1.20;;;;;;;;;;5052778;28;20216;-76
2022/09/03 04:17:01;;;;;;;1.50;1.40;;;;;;;;;;5051537;28;20249;-76
2022/09/03 04:19:29;;;;;;;1.40;1.30;;;;;;;;;;5034555;28;20275;-76
2022/09/03 04:21:55;;;;;;;1.50;1.40;;;;;;;;;;5052744;28;20199;-76
2022/09/03 04:24:21;;;;;;;3.03;1.40;;;;;;;;;;5051343;28;20202;-76
2022/09/03 04:26:49;;;;;;;1.43;1.33;;;;;;;;;;5052805;28;20197;-76
2022/09/03 04:29:15;;;;;;;1.47;1.33;;;;;;;;;;5034979;28;20177;-76
2022/09/03 04:32:51;;;;;;;1.73;1.40;;;;;;;;;;5052500;28;20179;-76
2022/09/03 04:34:26;;;;;;;1.60;1.50;;;;;;;;;;5051437;28;20255;-76
2022/09/03 04:36:53;;;;;;;1.40;1.30;;;;;;;;;;5034855;28;20181;-76
2022/09/03 04:39:19;;;;;;;2.20;1.33;;;;;;;;;;5051200;28;20181;-75
2022/09/03 04:41:45;;;;;;;1.57;1.47;;;;;;;;;;5034589;28;20701;-75
2022/09/03 04:44:11;;;;;;;2.07;1.50;;;;;;;;;;5034664;28;20201;-76
2022/09/03 04:46:38;;;;;;;1.83;1.20;;;;;;;;;;5051111;28;20669;-75
2022/09/03 04:49:06;;;;;;;3.00;1.50;;;;;;;;;;5051004;28;20173;-76
2022/09/03 04:51:32;;;;;;;2.33;1.30;;;;;;;;;;5034926;28;20177;-75
2022/09/03 04:54:00;;;;;;;1.57;1.47;;;;;;;;;;5034488;28;20658;-75
2022/09/03 04:56:27;;;;;;;1.60;1.43;;;;;;;;;;5034413;28;20534;-75
2022/09/03 04:58:57;;;;;;;1.43;1.33;;;;;;;;;;5034239;28;20177;-75
2022/09/03 05:01:24;;;;;;;1.53;1.43;;;;;;;;;;5051155;28;20179;-75
2022/09/03 05:03:53;;;;;;;1.73;1.50;;;;;;;;;;5052296;28;20199;-75
2022/09/03 05:06:19;;;;;;;1.87;1.30;;;;;;;;;;5035017;28;20207;-77
2022/09/03 05:08:49;;;;;;;1.70;1.40;;;;;;;;;;5034799;28;20620;-78
2022/09/03 05:11:15;;;;;;;1.93;1.60;;;;;;;;;;5051157;28;20225;-78
2022/09/03 05:13:42;;;;;;;2.20;1.30;;;;;;;;;;5051202;28;20210;-77
2022/09/03 05:16:09;;;;;;;1.40;1.30;;;;;;;;;;5051331;28;20182;-77
2022/09/03 05:18:36;;;;;;;1.83;1.40;;;;;;;;;;5051231;28;20647;-77
2022/09/03 05:21:06;;;;;;;3.40;1.40;;;;;;;;;;5051306;28;20228;-77
2022/09/03 05:23:35;;;;;;;1.50;1.33;;;;;;;;;;5051201;28;20203;-78
2022/09/03 05:26:03;;;;;;;1.60;1.50;;;;;;;;;;5034527;28;20204;-78
2022/09/03 05:28:30;;;;;;;1.30;1.20;;;;;;;;;;5051503;28;20260;-77
2022/09/03 05:31:00;;;;;;;1.40;1.30;;;;;;;;;;5052177;28;20284;-77
2022/09/03 05:33:26;;;;;;;1.60;1.40;;;;;;;;;;5055732;28;20211;-77
2022/09/03 05:35:53;;;;;;;1.93;1.40;;;;;;;;;;5038882;28;20182;-78
2022/09/03 05:38:19;;;;;;;1.90;1.40;;;;;;;;;;5038882;28;20226;-77
2022/09/03 05:40:45;;;;;;;1.50;1.40;;;;;;;;;;5038391;28;20238;-77
2022/09/03 05:43:11;;;;;;;1.60;1.50;;;;;;;;;;5038476;28;20232;-77
2022/09/03 05:45:38;;;;;;;1.70;1.50;;;;;;;;;;5056017;28;20648;-77
2022/09/03 05:48:04;;;;;;;1.50;1.33;;;;;;;;;;5055018;28;20183;-77
2022/09/03 05:50:30;;;;;;;1.60;1.50;;;;;;;;;;5054988;28;20184;-77
2022/09/03 05:52:58;;;;;;;1.50;1.40;;;;;;;;;;5038642;28;20261;-77
2022/09/03 05:55:24;;;;;;;2.20;1.53;;;;;;;;;;5038087;28;20226;-77
2022/09/03 05:57:53;;;;;;;1.67;1.43;;;;;;;;;;5038484;28;20178;-77
2022/09/03 06:00:19;;;;;;;1.67;1.57;;;;;;;;;;5038020;28;20177;-77
2022/09/03 06:02:51;;;;;;;1.90;1.40;;;;;;;;;;5055010;28;20223;-77
2022/09/03 06:05:17;;;;;;;1.77;1.50;;;;;;;;;;5055143;28;20215;-77
2022/09/03 06:07:47;;;;;;;2.40;1.40;;;;;;;;;;5038537;28;20229;-79
2022/09/03 06:10:15;;;;;;;1.60;1.50;;;;;;;;;;5056450;28;20162;-78
2022/09/03 06:12:41;;;;;;;2.00;1.60;;;;;;;;;;5055842;28;20173;-79
2022/09/03 06:15:07;;;;;;;1.40;1.30;;;;;;;;;;5055201;28;20205;-78
2022/09/03 06:17:33;;;;;;;2.03;1.47;;;;;;;;;;5038281;28;20272;-78
2022/09/03 06:19:59;;;;;;;1.53;1.43;;;;;;;;;;5054912;28;20242;-78
2022/09/03 06:22:27;;;;;;;1.87;1.50;;;;;;;;;;5038999;28;20185;-78
2022/09/03 06:24:53;;;;;;;1.57;1.40;;;;;;;;;;5056543;28;20223;-78
2022/09/03 06:27:20;;;;;;;1.47;1.30;;;;;;;;;;5055614;28;20640;-78
2022/09/03 06:29:46;;;;;;;1.93;1.50;;;;;;;;;;5054850;28;20572;-77
2022/09/03 06:32:13;;;;;;;1.50;1.37;;;;;;;;;;5055165;28;20178;-77
2022/09/03 06:34:39;;;;;;;2.63;1.87;;;;;;;;;;5038645;28;20197;-78
2022/09/03 06:37:05;;;;;;;1.80;1.40;;;;;;;;;;5056394;28;20312;-77
2022/09/03 06:39:31;;;;;;;3.40;1.50;;;;;;;;;;5054978;28;20223;-78
2022/09/03 06:41:57;;;;;;;1.63;1.40;;;;;;;;;;5038300;28;20182;-78
2022/09/03 06:44:23;;;;;;;1.70;1.50;;;;;;;;;;5037640;28;20647;-78
2022/09/03 06:46:49;;;;;;;3.27;1.60;;;;;;;;;;5038179;28;20201;-78
2022/09/03 06:49:16;;;;;;;1.87;1.60;;;;;;;;;;5037758;28;20178;-78
2022/09/03 06:51:42;;;;;;;1.50;1.40;;;;;;;;;;5053783;28;20636;-77
2022/09/03 06:54:10;;;;;;;2.03;1.50;;;;;;;;;;5053698;28;20667;-77
2022/09/03 06:56:36;;;;;;;2.40;1.60;;;;;;;;;;5054607;28;20180;-79
2022/09/03 06:59:06;;;;;;;2.17;1.53;;;;;;;;;;5054854;28;20617;-79
2022/09/03 07:01:33;;;;;;;1.83;1.50;;;;;;;;;;5055156;28;20247;-79
2022/09/03 07:04:00;;;;;;;2.70;1.70;;;;;;;;;;5038519;28;20208;-78
2022/09/03 07:06:28;;;;;;;2.23;1.50;;;;;;;;;;5054521;28;20202;-78
2022/09/03 07:08:57;;;;;;;1.73;1.50;;;;;;;;;;5054400;28;20209;-78
2022/09/03 07:11:25;;;;;;;2.43;1.60;;;;;;;;;;5038621;28;20212;-78
2022/09/03 07:13:52;;;;;;;1.70;1.40;;;;;;;;;;5054651;28;20217;-79
2022/09/03 07:16:26;;;;;;;1.87;1.50;;;;;;;;;;5038058;28;20185;-79
2022/09/03 07:18:52;;;;;;;2.90;1.67;;;;;;;;;;5054313;28;20173;-79
2022/09/03 07:21:19;;;;;;;2.57;1.50;;;;;;;;;;5054242;28;20711;-79
2022/09/03 07:23:46;;;;;;;1.87;1.43;;;;;;;;;;5054270;28;20193;-78
2022/09/03 07:26:13;;;;;;;2.07;1.60;;;;;;;;;;5037451;28;20209;-79
2022/09/03 07:28:40;;;;;;;2.27;1.57;;;;;;;;;;5055441;28;20170;-79
2022/09/03 07:31:09;;;;;;;1.97;1.60;;;;;;;;;;5038017;28;20275;-79
2022/09/03 07:33:35;;;;;;;1.50;1.40;;;;;;;;;;5054996;28;20595;-79
2022/09/03 07:36:02;;;;;;;1.70;1.60;;;;;;;;;;5037845;28;20181;-79
2022/09/03 07:38:28;;;;;;;2.00;1.43;;;;;;;;;;5054032;28;20185;-78
2022/09/03 07:40:58;;;;;;;1.57;1.40;;;;;;;;;;5037582;28;20185;-78
2022/09/03 07:43:25;;;;;;;2.73;1.40;;;;;;;;;;5037303;28;20252;-78
2022/09/03 07:45:51;;;;;;;1.77;1.27;;;;;;;;;;5036267;28;20643;-78
2022/09/03 07:48:17;;;;;;;1.50;1.30;;;;;;;;;;5052985;28;20182;-79
2022/09/03 07:50:43;;;;;;;1.70;1.47;;;;;;;;;;5036589;28;20296;-77
2022/09/03 07:53:09;;;;;;;1.93;1.40;;;;;;;;;;5036259;28;20680;-77
2022/09/03 07:55:35;;;;;;;2.57;1.47;;;;;;;;;;5035863;28;20209;-77
2022/09/03 07:58:01;;;;;;;4.07;1.40;;;;;;;;;;5036203;28;20178;-77
2022/09/03 08:00:27;;;;;;;2.70;1.40;;;;;;;;;;5036333;28;20181;-77
2022/09/03 08:02:55;;;;;;;1.83;1.33;;;;;;;;;;5036142;28;20189;-78
2022/09/03 08:05:21;;;;;;;2.13;1.27;;;;;;;;;;5052223;28;20208;-78
2022/09/03 08:07:48;;;;;;;1.50;1.40;;;;;;;;;;5035741;28;20212;-78
2022/09/03 08:10:15;;;;;;;1.57;1.40;;;;;;;;;;5035728;28;20196;-78
2022/09/03 08:12:41;;;;;;;2.00;1.40;;;;;;;;;;5052744;28;20227;-78
2022/09/03 08:15:07;;;;;;;1.97;1.60;;;;;;;;;;5035964;28;20209;-78
2022/09/03 08:17:33;;;;;;;1.93;1.50;;;;;;;;;;5052725;28;20200;-77
2022/09/03 08:19:59;;;;;;;2.97;1.40;;;;;;;;;;5052551;28;20177;-77
2022/09/03 08:22:25;;;;;;;4.53;1.57;;;;;;;;;;5052336;28;20209;-77
2022/09/03 08:24:54;;;;;;;2.70;1.57;;;;;;;;;;5035820;28;20282;-77
2022/09/03 08:27:24;;;;;;;2.37;1.43;;;;;;;;;;5036247;28;20296;-77
2022/09/03 08:29:50;;;;;;;1.73;1.30;;;;;;;;;;5036204;28;20636;-77
2022/09/03 08:32:16;;;;;;;1.87;1.47;;;;;;;;;;5052172;28;20185;-77
2022/09/03 08:34:42;;;;;;;3.47;1.50;;;;;;;;;;5052098;28;20193;-77
2022/09/03 08:37:09;;;;;;;2.03;1.40;;;;;;;;;;5036020;28;20597;-77
2022/09/03 08:39:35;;;;;;;1.43;1.33;;;;;;;;;;5052625;28;20174;-78
2022/09/03 08:42:20;;;;;;;2.10;1.40;;;;;;;;;;5035964;28;20276;-77
2022/09/03 08:44:55;;;;;;;2.23;1.60;;;;;;;;;;5053316;28;20229;-78
2022/09/03 08:47:21;;;;;;;2.20;1.20;;;;;;;;;;5035531;28;20201;-77
2022/09/03 08:49:54;;;;;;;1.57;1.20;;;;;;;;;;5051398;28;20189;-78
2022/09/03 08:52:31;;;;;;;2.10;1.40;;;;;;;;;;5051801;28;20219;-77
2022/09/03 08:55:16;;;;;;;1.73;1.40;;;;;;;;;;5052974;28;20189;-77
2022/09/03 08:57:45;;;;;;;2.10;1.40;;;;;;;;;;5051759;28;20673;-77
2022/09/03 09:00:11;;;;;;;1.40;1.30;;;;;;;;;;5051395;28;20186;-77
2022/09/03 09:02:37;;;;;;;1.43;1.33;;;;;;;;;;5053381;28;20208;-77
2022/09/03 09:05:16;;;;;;;1.60;1.30;;;;;;;;;;5051697;28;20237;-79
2022/09/03 09:07:52;;;;;;;1.87;1.40;;;;;;;;;;5051578;28;20209;-78
2022/09/03 09:10:24;;;;;;;1.20;1.10;;;;;;;;;;5052685;28;20184;-78
2022/09/03 09:13:05;;;;;;;2.83;1.33;;;;;;;;;;5051722;28;20174;-78
2022/09/03 09:22:00;;;;;;;1.77;1.30;;;;;;;;;;4993884;28;20238;-79
2022/09/03 09:24:28;;;;;;;1.92;1.30;;;;;;;;;;4984063;28;20200;-78
2022/09/03 09:27:04;;;;;;;3.65;1.40;;;;;;;;;;4973135;28;20258;-77
2022/09/03 09:29:35;;;;;;;2.20;1.40;;;;;;;;;;4972613;28;20192;-78
2022/09/03 09:32:03;;;;;;;1.40;1.30;;;;;;;;;;4972812;28;20184;-76
2022/09/03 09:34:34;;;;;;;3.33;1.40;;;;;;;;;;4973602;28;20199;-76
2022/09/03 09:37:03;;;;;;;2.28;1.90;;;;;;;;;;4973728;28;20244;-76
2022/09/03 09:39:29;;;;;;;1.40;1.30;;;;;;;;;;4960147;28;20615;-77
2022/09/03 09:42:01;;;;;;;3.42;1.40;;;;;;;;;;4956993;28;20176;-78
2022/09/03 09:44:27;;;;;;;4.38;1.65;;;;;;;;;;4972352;28;20195;-77
2022/09/03 09:47:02;;;;;;;1.25;1.15;;;;;;;;;;4956233;28;20258;-77
2022/09/03 09:49:31;;;;;;;3.10;1.13;;;;;;;;;;4972386;28;20183;-77
2022/09/03 09:52:14;;;;;;;2.67;1.30;;;;;;;;;;4972310;28;20183;-77
2022/09/03 09:54:41;;;;;;;1.45;1.20;;;;;;;;;;4972164;28;20188;-77
2022/09/03 09:57:08;;;;;;;2.45;1.30;;;;;;;;;;4972283;28;20177;-77
2022/09/03 09:59:36;;;;;;;2.55;1.48;;;;;;;;;;4956325;28;20181;-77
2022/09/03 10:02:25;;;;;;;1.20;1.10;;;;;;;;;;4956420;28;20295;-77
2022/09/03 10:04:51;;;;;;;3.97;2.67;;;;;;;;;;4972207;28;20200;-77
2022/09/03 10:07:30;;;;;;;2.20;1.30;;;;;;;;;;4956444;28;20600;-77
2022/09/03 10:10:01;;;;;;;2.65;1.42;;;;;;;;;;4956398;28;20181;-77
2022/09/03 10:12:34;;;;;;;1.48;1.33;;;;;;;;;;4972457;28;20516;-77
2022/09/03 10:15:19;;;;;;;1.58;1.40;;;;;;;;;;4972502;28;20238;-77
2022/09/03 10:17:48;;;;;;;1.50;1.40;;;;;;;;;;4972715;28;20184;-77
2022/09/03 10:20:36;;;;;;;3.25;1.52;;;;;;;;;;4975413;28;20176;-77
2022/09/03 10:23:02;;;;;;;3.33;1.23;;;;;;;;;;4975822;28;20629;-78
2022/09/03 10:26:06;;;;;;;2.85;1.20;;;;;;;;;;4975441;28;20806;-77
2022/09/03 10:28:37;;;;;;;1.30;1.20;;;;;;;;;;4916821;29;20189;-77
2022/09/03 10:31:12;;;;;;;1.83;1.20;;;;;;;;;;4967514;28;20180;-77
2022/09/03 10:34:07;;;;;;;1.50;1.40;;;;;;;;;;4975357;28;20184;-77
2022/09/03 10:36:39;;;;;;;1.23;1.13;;;;;;;;;;4923497;28;20226;-77
2022/09/03 10:39:07;;;;;;;1.92;1.50;;;;;;;;;;4958675;28;20200;-77
2022/09/03 10:41:40;;;;;;;2.13;1.45;;;;;;;;;;4974783;28;20215;-77
2022/09/03 10:44:16;;;;;;;2.80;1.23;;;;;;;;;;4974593;28;20192;-76
2022/09/03 10:46:53;;;;;;;1.40;1.30;;;;;;;;;;4975610;28;20235;-77
2022/09/03 10:49:19;;;;;;;1.95;1.60;;;;;;;;;;4975803;28;20168;-77
2022/09/03 10:52:05;;;;;;;1.92;1.40;;;;;;;;;;4974814;28;20658;-76
2022/09/03 10:54:40;;;;;;;1.48;1.17;;;;;;;;;;4945079;28;20295;-77
2022/09/03 10:57:31;;;;;;;2.00;1.38;;;;;;;;;;4974400;28;20314;-77
2022/09/03 11:00:08;;;;;;;1.70;1.60;;;;;;;;;;4974390;28;20180;-76
2022/09/03 11:02:40;;;;;;;1.85;1.40;;;;;;;;;;4974482;28;20239;-77
2022/09/03 11:05:08;;;;;;;2.22;2.03;;;;;;;;;;4974397;28;20262;-77
2022/09/03 11:07:37;;;;;;;1.50;1.40;;;;;;;;;;4958393;28;20267;-77
2022/09/03 11:10:19;;;;;;;2.03;1.30;;;;;;;;;;4974256;28;20184;-77
2022/09/03 11:12:47;;;;;;;1.35;1.10;;;;;;;;;;4974234;28;20171;-77
2022/09/03 11:15:25;;;;;;;1.27;1.10;;;;;;;;;;4974136;28;20204;-77
2022/09/03 11:17:57;;;;;;;1.20;1.10;;;;;;;;;;4974101;28;20180;-77
2022/09/03 11:20:24;;;;;;;2.47;1.30;;;;;;;;;;4958139;28;20220;-77
2022/09/03 11:23:01;;;;;;;1.50;1.30;;;;;;;;;;4974069;28;20180;-77
2022/09/03 11:25:31;;;;;;;1.80;1.20;;;;;;;;;;4957933;28;20570;-77
2022/09/03 11:28:12;;;;;;;2.22;1.40;;;;;;;;;;4975062;28;20207;-77
2022/09/03 11:30:46;;;;;;;3.05;2.72;;;;;;;;;;4973860;28;20211;-77
2022/09/03 11:33:13;;;;;;;2.38;1.95;;;;;;;;;;4973948;28;20267;-77
2022/09/03 11:35:41;;;;;;;1.30;1.20;;;;;;;;;;4957813;28;20201;-77
2022/09/03 11:38:17;;;;;;;1.33;1.23;;;;;;;;;;4973552;28;20211;-77
2022/09/03 11:40:57;;;;;;;3.58;1.30;;;;;;;;;;4973439;28;20190;-77
2022/09/03 11:43:23;;;;;;;2.97;1.40;;;;;;;;;;4973485;28;20266;-77
2022/09/03 11:45:49;;;;;;;2.10;1.50;;;;;;;;;;4973321;28;20173;-76
2022/09/03 11:48:28;;;;;;;6.07;1.63;;;;;;;;;;4957532;28;20177;-77
2022/09/03 11:50:54;;;;;;;4.25;1.90;;;;;;;;;;4974536;28;20176;-77
2022/09/03 11:53:33;;;;;;;3.33;1.87;;;;;;;;;;4973179;28;20599;-77
2022/09/03 11:56:02;;;;;;;2.63;2.00;;;;;;;;;;4974799;28;20217;-77
2022/09/03 11:58:34;;;;;;;3.63;2.00;;;;;;;;;;4973317;28;20185;-77
2022/09/03 12:01:23;;;;;;;3.78;2.30;;;;;;;;;;4973017;28;20177;-77
2022/09/03 12:03:49;;;;;;;2.20;1.98;;;;;;;;;;4973458;28;20215;-77
2022/09/03 12:06:29;;;;;;;2.70;1.90;;;;;;;;;;4973152;28;20208;-77
2022/09/03 12:08:58;;;;;;;2.30;1.80;;;;;;;;;;4973124;28;20176;-77
2022/09/03 12:11:29;;;;;;;2.45;1.98;;;;;;;;;;4974297;28;20631;-77
2022/09/03 12:14:19;;;;;;;4.28;1.90;;;;;;;;;;4972838;28;20208;-77
2022/09/03 12:17:07;;;;;;;2.00;1.80;;;;;;;;;;4972954;28;20181;-77
2022/09/03 12:19:33;;;;;;;2.10;1.90;;;;;;;;;;4972692;28;20211;-77
2022/09/03 12:22:01;;;;;;;1.77;1.67;;;;;;;;;;4972830;28;20655;-77
2022/09/03 12:24:34;;;;;;;3.00;2.00;;;;;;;;;;4957023;28;20645;-77
2022/09/03 12:27:01;;;;;;;3.42;2.20;;;;;;;;;;4973169;28;20199;-77
2022/09/03 12:29:28;;;;;;;3.47;1.80;;;;;;;;;;4972846;28;20204;-77
2022/09/03 12:31:55;;;;;;;2.55;1.70;;;;;;;;;;4956616;28;20187;-77
2022/09/03 12:34:22;;;;;;;3.33;2.10;;;;;;;;;;4972686;28;20224;-77
2022/09/03 12:36:50;;;;;;;2.15;1.90;;;;;;;;;;4972647;28;20177;-77
2022/09/03 12:39:22;;;;;;;2.37;2.13;;;;;;;;;;4972497;28;20557;-77
2022/09/03 12:41:55;;;;;;;3.45;2.60;;;;;;;;;;4971845;28;20180;-77
2022/09/03 12:44:28;;;;;;;4.07;1.80;;;;;;;;;;4973918;28;20203;-77
2022/09/03 12:47:05;;;;;;;3.20;2.08;;;;;;;;;;4973728;28;20200;-76
2022/09/03 12:49:38;;;;;;;2.22;1.98;;;;;;;;;;4956252;28;20184;-77
2022/09/03 12:52:28;;;;;;;5.63;1.83;;;;;;;;;;4972720;28;20176;-77
2022/09/03 12:54:59;;;;;;;2.03;1.83;;;;;;;;;;4964817;28;20246;-77
2022/09/03 12:57:37;;;;;;;4.07;1.90;;;;;;;;;;4972512;28;20172;-77
2022/09/03 13:00:05;;;;;;;2.72;1.75;;;;;;;;;;4972253;28;20184;-77
2022/09/03 13:02:38;;;;;;;1.90;1.63;;;;;;;;;;4972313;28;20176;-77
2022/09/03 13:05:06;;;;;;;1.90;1.70;;;;;;;;;;4972294;28;20188;-77
2022/09/03 13:07:36;;;;;;;4.45;1.80;;;;;;;;;;4973856;28;20227;-77
2022/09/03 13:10:07;;;;;;;2.17;1.60;;;;;;;;;;4972128;28;20608;-77
2022/09/03 13:12:35;;;;;;;1.92;1.60;;;;;;;;;;4972194;28;20183;-77
2022/09/03 13:15:09;;;;;;;2.10;1.90;;;;;;;;;;4972069;28;20240;-77
2022/09/03 13:17:35;;;;;;;2.35;1.70;;;;;;;;;;4972114;28;20653;-77
2022/09/03 13:20:01;;;;;;;3.08;1.65;;;;;;;;;;4966775;28;20562;-77
2022/09/03 13:22:46;;;;;;;2.15;1.60;;;;;;;;;;4969477;28;20180;-77
2022/09/03 13:25:13;;;;;;;1.60;1.50;;;;;;;;;;4953137;29;20201;-77
2022/09/03 13:27:51;;;;;;;1.75;1.65;;;;;;;;;;4952925;29;20200;-77
2022/09/03 13:30:22;;;;;;;1.70;1.55;;;;;;;;;;4952709;29;20237;-78
2022/09/03 13:33:06;;;;;;;1.98;1.88;;;;;;;;;;4937271;29;20664;-77
2022/09/03 13:35:37;;;;;;;2.53;1.80;;;;;;;;;;4953806;28;20196;-77
2022/09/03 13:38:10;;;;;;;2.20;1.55;;;;;;;;;;4952860;29;20180;-77
2022/09/03 13:40:49;;;;;;;8.43;5.60;;;;;;;;;;4952801;29;20181;-77
2022/09/03 13:43:31;;;;;;;3.17;2.22;;;;;;;;;;4953889;29;20260;-78
2022/09/03 13:45:57;;;;;;;1.70;1.60;;;;;;;;;;4953085;29;20181;-78
2022/09/03 13:51:39;;;;;;;1.55;1.45;;;;;;;;;;4954660;28;20188;-78
2022/09/03 13:54:26;;;;;;;2.72;1.50;;;;;;;;;;4956223;28;20295;-78
2022/09/03 13:56:57;;;;;;;1.98;1.40;;;;;;;;;;4956552;29;20173;-78
2022/09/03 13:59:50;;;;;;;1.65;1.50;;;;;;;;;;4955987;29;20177;-77
2022/09/03 14:02:16;;;;;;;2.72;1.50;;;;;;;;;;4956514;29;20184;-77
2022/09/03 14:05:02;;;;;;;2.25;1.42;;;;;;;;;;4955959;28;20197;-77
2022/09/03 14:07:34;;;;;;;2.58;1.50;;;;;;;;;;4956156;29;20231;-77
2022/09/03 14:10:10;;;;;;;1.50;1.40;;;;;;;;;;4956118;29;20268;-77
2022/09/03 14:12:48;;;;;;;3.38;1.30;;;;;;;;;;4957167;28;20176;-77
2022/09/03 14:15:30;;;;;;;2.50;1.45;;;;;;;;;;4956064;28;20260;-77
2022/09/03 14:18:09;;;;;;;2.40;1.40;;;;;;;;;;4957036;28;20636;-77
2022/09/03 14:20:44;;;;;;;2.50;1.40;;;;;;;;;;4955772;29;20235;-77
2022/09/03 14:23:23;;;;;;;2.08;1.40;;;;;;;;;;4955658;29;20181;-77
2022/09/03 14:25:56;;;;;;;1.98;1.50;;;;;;;;;;4955854;29;20188;-77
2022/09/03 14:28:48;;;;;;;1.63;1.50;;;;;;;;;;4955584;28;20184;-78
2022/09/03 14:31:27;;;;;;;2.00;1.58;;;;;;;;;;4957441;28;20272;-78
2022/09/03 14:33:59;;;;;;;2.55;1.50;;;;;;;;;;4955853;28;20197;-77
2022/09/03 14:36:39;;;;;;;1.60;1.30;;;;;;;;;;4955369;29;20176;-77
2022/09/03 14:39:17;;;;;;;1.60;1.50;;;;;;;;;;4955724;29;20629;-77
2022/09/03 14:41:52;;;;;;;2.20;1.35;;;;;;;;;;4955460;29;20699;-77
2022/09/03 14:44:38;;;;;;;1.60;1.42;;;;;;;;;;4954561;28;20215;-77
2022/09/03 14:47:17;;;;;;;1.55;1.45;;;;;;;;;;4971116;28;20208;-77
2022/09/03 14:49:46;;;;;;;1.63;1.50;;;;;;;;;;4955287;29;20989;-77
2022/09/03 14:52:24;;;;;;;2.90;1.67;;;;;;;;;;4955184;29;20265;-77
2022/09/03 14:55:10;;;;;;;1.77;1.30;;;;;;;;;;4955443;28;20196;-77
2022/09/03 14:57:55;;;;;;;1.40;1.30;;;;;;;;;;4958861;28;20193;-77
2022/09/03 15:00:30;;;;;;;1.58;1.40;;;;;;;;;;4956203;28;20176;-77
2022/09/03 15:02:56;;;;;;;1.38;1.27;;;;;;;;;;4954901;28;20180;-78
2022/09/03 15:05:37;;;;;;;1.40;1.30;;;;;;;;;;4955513;28;20189;-77
2022/09/03 15:08:16;;;;;;;1.88;1.27;;;;;;;;;;4955070;29;20255;-78
2022/09/03 15:10:52;;;;;;;2.00;1.38;;;;;;;;;;4954822;29;20181;-77
2022/09/03 15:13:18;;;;;;;1.63;1.40;;;;;;;;;;4954701;28;20184;-77
2022/09/03 15:18:51;;;;;;;1.65;1.33;;;;;;;;;;4974707;28;20624;-77
2022/09/03 15:21:30;;;;;;;1.75;1.30;;;;;;;;;;4974273;28;20173;-77